sensor_id;sensor_type;location;lat;lon;timestamp;temperature;humidity
19941;DHT22;10132;50.864;5.176;2023-02-27T00:01:02;0.90;99.90
19941;DHT22;10132;50.864;5.176;2023-02-27T00:03:04;0.90;99.90
19941;DHT22;10132;50.864;5.176;2023-02-27T00:05:06;0.90;99.90
19941;DHT22;10132;50.864;5.176;2023-02-27T00:07:09;0.90;99.90
19941;DHT22;10132;50.864;5.176;2023-02-27T00:09:11;0.90;99.90
19941;DHT22;10132;50.864;5.176;2023-02-27T00:11:13;0.90;99.90
19941;DHT22;10132;50.864;5.176;2023-02-27T00:13:16;0.90;99.90
19941;DHT22;10132;50.864;5.176;2023-02-27T00:15:19;0.80;99.90
19941;DHT22;10132;50.864;5.176;2023-02-27T00:17:22;0.90;99.90
19941;DHT22;10132;50.864;5.176;2023-02-27T00:19:25;0.80;99.90
19941;DHT22;10132;50.864;5.176;2023-02-27T00:21:27;0.70;99.90
19941;DHT22;10132;50.864;5.176;2023-02-27T00:23:29;0.70;99.90
19941;DHT22;10132;50.864;5.176;2023-02-27T00:25:32;0.70;99.90
19941;DHT22;10132;50.864;5.176;2023-02-27T00:27:34;0.70;99.90
19941;DHT22;10132;50.864;5.176;2023-02-27T00:29:38;0.70;99.90
19941;DHT22;10132;50.864;5.176;2023-02-27T00:31:40;0.60;99.90
19941;DHT22;10132;50.864;5.176;2023-02-27T00:33:42;0.60;99.90
19941;DHT22;10132;50.864;5.176;2023-02-27T00:35:44;0.60;99.90
19941;DHT22;10132;50.864;5.176;2023-02-27T00:37:46;0.60;99.90
19941;DHT22;10132;50.864;5.176;2023-02-27T00:39:48;0.60;99.90
19941;DHT22;10132;50.864;5.176;2023-02-27T00:41:50;0.50;99.90
19941;DHT22;10132;50.864;5.176;2023-02-27T00:43:52;0.60;99.90
19941;DHT22;10132;50.864;5.176;2023-02-27T00:45:56;0.60;99.90
19941;DHT22;10132;50.864;5.176;2023-02-27T00:47:58;0.60;99.90
19941;DHT22;10132;50.864;5.176;2023-02-27T00:50:00;0.50;99.90
19941;DHT22;10132;50.864;5.176;2023-02-27T00:52:02;0.50;99.90
19941;DHT22;10132;50.864;5.176;2023-02-27T00:54:05;0.50;99.90
19941;DHT22;10132;50.864;5.176;2023-02-27T00:56:07;0.40;99.90
19941;DHT22;10132;50.864;5.176;2023-02-27T00:58:09;0.40;99.90
19941;DHT22;10132;50.864;5.176;2023-02-27T01:00:12;0.40;99.90
19941;DHT22;10132;50.864;5.176;2023-02-27T01:02:15;0.30;99.90
19941;DHT22;10132;50.864;5.176;2023-02-27T01:04:17;0.40;99.90
19941;DHT22;10132;50.864;5.176;2023-02-27T01:06:19;0.40;99.90
19941;DHT22;10132;50.864;5.176;2023-02-27T01:08:21;0.50;99.90
19941;DHT22;10132;50.864;5.176;2023-02-27T01:10:23;0.40;99.90
19941;DHT22;10132;50.864;5.176;2023-02-27T01:12:25;0.40;99.90
19941;DHT22;10132;50.864;5.176;2023-02-27T01:14:27;0.40;99.90
19941;DHT22;10132;50.864;5.176;2023-02-27T01:16:30;0.30;99.90
19941;DHT22;10132;50.864;5.176;2023-02-27T01:18:33;0.20;99.90
19941;DHT22;10132;50.864;5.176;2023-02-27T01:20:35;0.20;99.90
19941;DHT22;10132;50.864;5.176;2023-02-27T01:22:37;0.20;99.90
19941;DHT22;10132;50.864;5.176;2023-02-27T01:24:40;0.30;99.90
19941;DHT22;10132;50.864;5.176;2023-02-27T01:26:42;0.20;99.90
19941;DHT22;10132;50.864;5.176;2023-02-27T01:28:44;0.20;99.90
19941;DHT22;10132;50.864;5.176;2023-02-27T01:30:46;0.20;99.90
19941;DHT22;10132;50.864;5.176;2023-02-27T01:32:48;0.20;99.90
19941;DHT22;10132;50.864;5.176;2023-02-27T01:34:52;0.10;99.90
19941;DHT22;10132;50.864;5.176;2023-02-27T01:36:54;0.20;99.90
19941;DHT22;10132;50.864;5.176;2023-02-27T01:38:56;0.20;99.90
19941;DHT22;10132;50.864;5.176;2023-02-27T01:40:58;0.10;99.90
19941;DHT22;10132;50.864;5.176;2023-02-27T01:43:00;0.10;99.90
19941;DHT22;10132;50.864;5.176;2023-02-27T01:45:27;0.10;99.90
19941;DHT22;10132;50.864;5.176;2023-02-27T01:47:30;0.00;99.90
19941;DHT22;10132;50.864;5.176;2023-02-27T01:49:33;0.00;99.90
19941;DHT22;10132;50.864;5.176;2023-02-27T01:51:38;-0.10;99.90
19941;DHT22;10132;50.864;5.176;2023-02-27T01:53:43;-0.10;99.90
19941;DHT22;10132;50.864;5.176;2023-02-27T01:55:47;-0.10;99.90
19941;DHT22;10132;50.864;5.176;2023-02-27T01:57:49;-0.10;99.90
19941;DHT22;10132;50.864;5.176;2023-02-27T01:59:52;-0.10;99.90
19941;DHT22;10132;50.864;5.176;2023-02-27T02:01:55;-0.10;99.90
19941;DHT22;10132;50.864;5.176;2023-02-27T02:04:01;-0.10;99.90
19941;DHT22;10132;50.864;5.176;2023-02-27T02:06:06;-0.10;99.90
19941;DHT22;10132;50.864;5.176;2023-02-27T02:08:10;-0.20;99.90
19941;DHT22;10132;50.864;5.176;2023-02-27T02:10:15;-0.10;99.90
19941;DHT22;10132;50.864;5.176;2023-02-27T02:12:23;-0.20;99.90
19941;DHT22;10132;50.864;5.176;2023-02-27T02:14:25;-0.20;99.90
19941;DHT22;10132;50.864;5.176;2023-02-27T02:16:42;-0.20;99.90
19941;DHT22;10132;50.864;5.176;2023-02-27T02:18:50;-0.20;99.90
19941;DHT22;10132;50.864;5.176;2023-02-27T02:21:28;-0.20;99.90
19941;DHT22;10132;50.864;5.176;2023-02-27T02:26:37;-0.20;99.90
19941;DHT22;10132;50.864;5.176;2023-02-27T02:29:15;-0.30;99.90
19941;DHT22;10132;50.864;5.176;2023-02-27T02:31:42;-0.30;99.90
19941;DHT22;10132;50.864;5.176;2023-02-27T02:34:06;-0.30;99.90
19941;DHT22;10132;50.864;5.176;2023-02-27T02:41:25;-0.40;99.90
19941;DHT22;10132;50.864;5.176;2023-02-27T02:43:36;-0.40;99.90
19941;DHT22;10132;50.864;5.176;2023-02-27T02:45:47;-0.30;99.90
19941;DHT22;10132;50.864;5.176;2023-02-27T02:48:02;-0.40;99.90
19941;DHT22;10132;50.864;5.176;2023-02-27T02:50:12;-0.30;99.90
19941;DHT22;10132;50.864;5.176;2023-02-27T02:52:22;-0.30;99.90
19941;DHT22;10132;50.864;5.176;2023-02-27T02:54:36;-0.40;99.90
19941;DHT22;10132;50.864;5.176;2023-02-27T02:56:43;-0.40;99.90
19941;DHT22;10132;50.864;5.176;2023-02-27T02:58:51;-0.40;99.90
19941;DHT22;10132;50.864;5.176;2023-02-27T03:00:59;-0.40;99.90
19941;DHT22;10132;50.864;5.176;2023-02-27T03:03:08;-0.40;99.90
19941;DHT22;10132;50.864;5.176;2023-02-27T03:05:16;-0.50;99.90
19941;DHT22;10132;50.864;5.176;2023-02-27T03:07:22;-0.50;99.90
19941;DHT22;10132;50.864;5.176;2023-02-27T03:09:34;-0.50;99.90
19941;DHT22;10132;50.864;5.176;2023-02-27T03:11:40;-0.50;99.90
19941;DHT22;10132;50.864;5.176;2023-02-27T03:13:47;-0.50;99.90
19941;DHT22;10132;50.864;5.176;2023-02-27T03:15:56;-0.50;99.90
19941;DHT22;10132;50.864;5.176;2023-02-27T03:18:05;-0.50;99.90
19941;DHT22;10132;50.864;5.176;2023-02-27T03:20:13;-0.50;99.90
19941;DHT22;10132;50.864;5.176;2023-02-27T03:22:18;-0.50;99.90
19941;DHT22;10132;50.864;5.176;2023-02-27T03:24:24;-0.60;99.90
19941;DHT22;10132;50.864;5.176;2023-02-27T03:26:33;-0.60;99.90
19941;DHT22;10132;50.864;5.176;2023-02-27T03:28:39;-0.70;99.90
19941;DHT22;10132;50.864;5.176;2023-02-27T03:30:50;-0.70;99.90
19941;DHT22;10132;50.864;5.176;2023-02-27T03:32:57;-0.70;99.90
19941;DHT22;10132;50.864;5.176;2023-02-27T03:35:01;-0.70;99.90
19941;DHT22;10132;50.864;5.176;2023-02-27T03:37:15;-0.70;99.90
19941;DHT22;10132;50.864;5.176;2023-02-27T03:39:28;-0.70;99.90
19941;DHT22;10132;50.864;5.176;2023-02-27T03:41:39;-0.70;99.90
19941;DHT22;10132;50.864;5.176;2023-02-27T03:43:49;-0.70;99.90
19941;DHT22;10132;50.864;5.176;2023-02-27T03:45:55;-0.70;99.90
19941;DHT22;10132;50.864;5.176;2023-02-27T03:48:00;-0.70;99.90
19941;DHT22;10132;50.864;5.176;2023-02-27T03:50:03;-0.80;99.90
19941;DHT22;10132;50.864;5.176;2023-02-27T03:52:05;-0.80;99.90
19941;DHT22;10132;50.864;5.176;2023-02-27T03:54:10;-0.80;99.90
19941;DHT22;10132;50.864;5.176;2023-02-27T03:56:15;-0.80;99.90
19941;DHT22;10132;50.864;5.176;2023-02-27T03:58:20;-0.80;99.90
19941;DHT22;10132;50.864;5.176;2023-02-27T04:00:23;-0.80;99.90
19941;DHT22;10132;50.864;5.176;2023-02-27T04:02:26;-0.90;99.90
19941;DHT22;10132;50.864;5.176;2023-02-27T04:04:30;-0.80;99.90
19941;DHT22;10132;50.864;5.176;2023-02-27T04:06:34;-0.90;99.90
19941;DHT22;10132;50.864;5.176;2023-02-27T04:09:00;-0.90;99.90
19941;DHT22;10132;50.864;5.176;2023-02-27T04:11:27;-0.80;99.90
19941;DHT22;10132;50.864;5.176;2023-02-27T04:13:43;-0.90;99.90
19941;DHT22;10132;50.864;5.176;2023-02-27T04:18:21;-0.90;99.90
19941;DHT22;10132;50.864;5.176;2023-02-27T04:20:38;-0.90;99.90
19941;DHT22;10132;50.864;5.176;2023-02-27T04:22:45;-0.90;99.90
19941;DHT22;10132;50.864;5.176;2023-02-27T04:24:55;-1.00;99.90
19941;DHT22;10132;50.864;5.176;2023-02-27T04:27:07;-1.00;99.90
19941;DHT22;10132;50.864;5.176;2023-02-27T04:29:15;-1.00;99.90
19941;DHT22;10132;50.864;5.176;2023-02-27T04:31:21;-0.90;99.90
19941;DHT22;10132;50.864;5.176;2023-02-27T04:33:35;-0.90;99.90
19941;DHT22;10132;50.864;5.176;2023-02-27T04:35:46;-0.90;99.90
19941;DHT22;10132;50.864;5.176;2023-02-27T04:37:55;-0.90;99.90
19941;DHT22;10132;50.864;5.176;2023-02-27T04:40:01;-0.90;99.90
19941;DHT22;10132;50.864;5.176;2023-02-27T04:42:08;-0.90;99.90
19941;DHT22;10132;50.864;5.176;2023-02-27T04:44:14;-0.90;99.90
19941;DHT22;10132;50.864;5.176;2023-02-27T04:46:19;-0.90;99.90
19941;DHT22;10132;50.864;5.176;2023-02-27T04:48:25;-0.90;99.90
19941;DHT22;10132;50.864;5.176;2023-02-27T04:50:32;-0.90;99.90
19941;DHT22;10132;50.864;5.176;2023-02-27T04:52:38;-0.90;99.90
19941;DHT22;10132;50.864;5.176;2023-02-27T04:54:45;-1.00;99.90
19941;DHT22;10132;50.864;5.176;2023-02-27T04:56:51;-1.00;99.90
19941;DHT22;10132;50.864;5.176;2023-02-27T04:58:57;-1.00;99.90
19941;DHT22;10132;50.864;5.176;2023-02-27T05:01:05;-1.00;99.90
19941;DHT22;10132;50.864;5.176;2023-02-27T05:03:13;-1.10;99.90
19941;DHT22;10132;50.864;5.176;2023-02-27T05:05:25;-1.10;99.90
19941;DHT22;10132;50.864;5.176;2023-02-27T05:07:30;-1.10;99.90
19941;DHT22;10132;50.864;5.176;2023-02-27T05:09:37;-1.20;99.90
19941;DHT22;10132;50.864;5.176;2023-02-27T05:11:46;-1.20;99.90
19941;DHT22;10132;50.864;5.176;2023-02-27T05:13:52;-1.10;99.90
19941;DHT22;10132;50.864;5.176;2023-02-27T05:15:58;-1.10;99.90
19941;DHT22;10132;50.864;5.176;2023-02-27T05:18:05;-1.10;99.90
19941;DHT22;10132;50.864;5.176;2023-02-27T05:20:09;-1.10;99.90
19941;DHT22;10132;50.864;5.176;2023-02-27T05:22:21;-1.10;99.90
19941;DHT22;10132;50.864;5.176;2023-02-27T05:24:31;-1.10;99.90
19941;DHT22;10132;50.864;5.176;2023-02-27T05:26:51;-1.20;99.90
19941;DHT22;10132;50.864;5.176;2023-02-27T05:29:02;-1.30;99.90
19941;DHT22;10132;50.864;5.176;2023-02-27T05:31:12;-1.40;99.90
19941;DHT22;10132;50.864;5.176;2023-02-27T05:33:21;-1.30;99.90
19941;DHT22;10132;50.864;5.176;2023-02-27T05:35:30;-1.30;99.90
19941;DHT22;10132;50.864;5.176;2023-02-27T05:37:38;-1.30;99.90
19941;DHT22;10132;50.864;5.176;2023-02-27T05:39:44;-1.30;99.90
19941;DHT22;10132;50.864;5.176;2023-02-27T05:41:51;-1.40;99.90
19941;DHT22;10132;50.864;5.176;2023-02-27T05:43:58;-1.30;99.90
19941;DHT22;10132;50.864;5.176;2023-02-27T05:46:04;-1.30;99.90
19941;DHT22;10132;50.864;5.176;2023-02-27T05:48:11;-1.30;99.90
19941;DHT22;10132;50.864;5.176;2023-02-27T05:50:19;-1.40;99.90
19941;DHT22;10132;50.864;5.176;2023-02-27T05:52:23;-1.40;99.90
19941;DHT22;10132;50.864;5.176;2023-02-27T05:54:30;-1.50;99.90
19941;DHT22;10132;50.864;5.176;2023-02-27T05:56:35;-1.50;99.90
19941;DHT22;10132;50.864;5.176;2023-02-27T05:58:40;-1.60;99.90
19941;DHT22;10132;50.864;5.176;2023-02-27T06:00:46;-1.50;99.90
19941;DHT22;10132;50.864;5.176;2023-02-27T06:02:50;-1.40;99.90
19941;DHT22;10132;50.864;5.176;2023-02-27T06:04:53;-1.40;99.90
19941;DHT22;10132;50.864;5.176;2023-02-27T06:06:57;-1.40;99.90
19941;DHT22;10132;50.864;5.176;2023-02-27T06:08:59;-1.40;99.90
19941;DHT22;10132;50.864;5.176;2023-02-27T06:11:01;-1.50;99.90
19941;DHT22;10132;50.864;5.176;2023-02-27T06:13:03;-1.50;99.90
19941;DHT22;10132;50.864;5.176;2023-02-27T06:15:06;-1.60;99.90
19941;DHT22;10132;50.864;5.176;2023-02-27T06:17:09;-1.60;99.90
19941;DHT22;10132;50.864;5.176;2023-02-27T06:19:11;-1.60;99.90
19941;DHT22;10132;50.864;5.176;2023-02-27T06:21:13;-1.50;99.90
19941;DHT22;10132;50.864;5.176;2023-02-27T06:23:16;-1.50;99.90
19941;DHT22;10132;50.864;5.176;2023-02-27T06:25:18;-1.60;99.90
19941;DHT22;10132;50.864;5.176;2023-02-27T06:27:21;-1.50;99.90
19941;DHT22;10132;50.864;5.176;2023-02-27T06:29:23;-1.50;99.90
19941;DHT22;10132;50.864;5.176;2023-02-27T06:31:25;-1.40;99.90
19941;DHT22;10132;50.864;5.176;2023-02-27T06:33:27;-1.40;99.90
19941;DHT22;10132;50.864;5.176;2023-02-27T06:35:29;-1.40;99.90
19941;DHT22;10132;50.864;5.176;2023-02-27T06:37:32;-1.40;99.90
19941;DHT22;10132;50.864;5.176;2023-02-27T06:39:35;-1.40;99.90
19941;DHT22;10132;50.864;5.176;2023-02-27T06:41:37;-1.40;99.90
19941;DHT22;10132;50.864;5.176;2023-02-27T06:43:39;-1.40;99.90
19941;DHT22;10132;50.864;5.176;2023-02-27T06:45:41;-1.40;99.90
19941;DHT22;10132;50.864;5.176;2023-02-27T06:47:44;-1.30;99.90
19941;DHT22;10132;50.864;5.176;2023-02-27T06:49:45;-1.30;99.90
19941;DHT22;10132;50.864;5.176;2023-02-27T06:51:48;-1.30;99.90
19941;DHT22;10132;50.864;5.176;2023-02-27T06:53:50;-1.40;99.90
19941;DHT22;10132;50.864;5.176;2023-02-27T06:55:53;-1.50;99.90
19941;DHT22;10132;50.864;5.176;2023-02-27T06:57:55;-1.40;99.90
19941;DHT22;10132;50.864;5.176;2023-02-27T06:59:57;-1.30;99.90
19941;DHT22;10132;50.864;5.176;2023-02-27T07:01:59;-1.10;99.90
19941;DHT22;10132;50.864;5.176;2023-02-27T07:04:01;-1.00;99.90
19941;DHT22;10132;50.864;5.176;2023-02-27T07:06:03;-0.90;99.90
19941;DHT22;10132;50.864;5.176;2023-02-27T07:08:05;-0.80;99.90
19941;DHT22;10132;50.864;5.176;2023-02-27T07:10:10;-0.70;99.90
19941;DHT22;10132;50.864;5.176;2023-02-27T07:12:14;-0.60;99.90
19941;DHT22;10132;50.864;5.176;2023-02-27T07:14:16;-0.60;99.90
19941;DHT22;10132;50.864;5.176;2023-02-27T07:16:18;-0.50;99.90
19941;DHT22;10132;50.864;5.176;2023-02-27T07:18:20;-0.50;99.90
19941;DHT22;10132;50.864;5.176;2023-02-27T07:20:22;-0.50;99.90
19941;DHT22;10132;50.864;5.176;2023-02-27T07:22:24;-0.50;99.90
19941;DHT22;10132;50.864;5.176;2023-02-27T07:24:26;-0.40;99.90
19941;DHT22;10132;50.864;5.176;2023-02-27T07:26:28;-0.30;99.90
19941;DHT22;10132;50.864;5.176;2023-02-27T07:28:31;-0.20;99.90
19941;DHT22;10132;50.864;5.176;2023-02-27T07:30:33;-0.20;99.90
19941;DHT22;10132;50.864;5.176;2023-02-27T07:32:35;-0.10;99.90
19941;DHT22;10132;50.864;5.176;2023-02-27T07:34:37;0.00;99.90
19941;DHT22;10132;50.864;5.176;2023-02-27T07:36:39;0.10;99.90
19941;DHT22;10132;50.864;5.176;2023-02-27T07:38:41;0.10;99.90
19941;DHT22;10132;50.864;5.176;2023-02-27T07:40:43;0.20;99.90
19941;DHT22;10132;50.864;5.176;2023-02-27T07:42:46;0.40;99.90
19941;DHT22;10132;50.864;5.176;2023-02-27T07:44:50;0.50;99.90
19941;DHT22;10132;50.864;5.176;2023-02-27T07:46:52;0.60;99.90
19941;DHT22;10132;50.864;5.176;2023-02-27T07:48:54;0.70;99.90
19941;DHT22;10132;50.864;5.176;2023-02-27T07:50:56;0.80;99.90
19941;DHT22;10132;50.864;5.176;2023-02-27T07:52:58;0.80;99.90
19941;DHT22;10132;50.864;5.176;2023-02-27T07:55:00;1.00;99.90
19941;DHT22;10132;50.864;5.176;2023-02-27T07:57:02;1.00;99.90
19941;DHT22;10132;50.864;5.176;2023-02-27T07:59:04;1.10;99.90
19941;DHT22;10132;50.864;5.176;2023-02-27T08:01:08;1.20;99.90
19941;DHT22;10132;50.864;5.176;2023-02-27T08:03:10;1.20;99.90
19941;DHT22;10132;50.864;5.176;2023-02-27T08:05:12;1.20;99.90
19941;DHT22;10132;50.864;5.176;2023-02-27T08:07:14;1.20;99.90
19941;DHT22;10132;50.864;5.176;2023-02-27T08:09:16;1.30;99.90
19941;DHT22;10132;50.864;5.176;2023-02-27T08:11:18;1.40;99.90
19941;DHT22;10132;50.864;5.176;2023-02-27T08:13:21;1.50;99.90
19941;DHT22;10132;50.864;5.176;2023-02-27T08:15:23;1.60;99.90
19941;DHT22;10132;50.864;5.176;2023-02-27T08:17:26;1.90;99.90
19941;DHT22;10132;50.864;5.176;2023-02-27T08:19:28;2.00;99.90
19941;DHT22;10132;50.864;5.176;2023-02-27T08:21:30;2.00;99.90
19941;DHT22;10132;50.864;5.176;2023-02-27T08:23:32;2.10;99.90
19941;DHT22;10132;50.864;5.176;2023-02-27T08:25:34;2.10;99.90
19941;DHT22;10132;50.864;5.176;2023-02-27T08:27:37;2.20;99.90
19941;DHT22;10132;50.864;5.176;2023-02-27T08:29:40;2.40;99.90
19941;DHT22;10132;50.864;5.176;2023-02-27T08:31:42;2.50;99.90
19941;DHT22;10132;50.864;5.176;2023-02-27T08:33:47;2.50;99.90
19941;DHT22;10132;50.864;5.176;2023-02-27T08:35:50;2.60;99.90
19941;DHT22;10132;50.864;5.176;2023-02-27T08:37:53;2.80;99.90
19941;DHT22;10132;50.864;5.176;2023-02-27T08:39:56;2.80;99.90
19941;DHT22;10132;50.864;5.176;2023-02-27T08:41:58;2.90;99.90
19941;DHT22;10132;50.864;5.176;2023-02-27T08:43:59;2.90;99.90
19941;DHT22;10132;50.864;5.176;2023-02-27T08:46:01;3.00;99.90
19941;DHT22;10132;50.864;5.176;2023-02-27T08:48:04;3.20;99.90
19941;DHT22;10132;50.864;5.176;2023-02-27T08:50:09;3.40;99.90
19941;DHT22;10132;50.864;5.176;2023-02-27T08:52:12;3.60;99.90
19941;DHT22;10132;50.864;5.176;2023-02-27T08:54:14;3.80;99.90
19941;DHT22;10132;50.864;5.176;2023-02-27T08:56:16;3.70;99.90
19941;DHT22;10132;50.864;5.176;2023-02-27T08:58:18;3.80;99.90
19941;DHT22;10132;50.864;5.176;2023-02-27T09:00:21;3.80;99.90
19941;DHT22;10132;50.864;5.176;2023-02-27T09:02:23;3.90;99.90
19941;DHT22;10132;50.864;5.176;2023-02-27T09:04:26;4.10;99.90
19941;DHT22;10132;50.864;5.176;2023-02-27T09:06:30;4.10;99.90
19941;DHT22;10132;50.864;5.176;2023-02-27T09:08:32;4.10;99.90
19941;DHT22;10132;50.864;5.176;2023-02-27T09:10:34;4.30;99.90
19941;DHT22;10132;50.864;5.176;2023-02-27T09:12:36;4.30;99.90
19941;DHT22;10132;50.864;5.176;2023-02-27T09:14:38;4.30;99.90
19941;DHT22;10132;50.864;5.176;2023-02-27T09:16:40;4.30;99.90
19941;DHT22;10132;50.864;5.176;2023-02-27T09:18:42;4.50;99.90
19941;DHT22;10132;50.864;5.176;2023-02-27T09:20:45;4.50;99.90
19941;DHT22;10132;50.864;5.176;2023-02-27T09:22:48;4.60;99.90
19941;DHT22;10132;50.864;5.176;2023-02-27T09:24:50;4.60;99.90
19941;DHT22;10132;50.864;5.176;2023-02-27T09:26:52;4.70;99.90
19941;DHT22;10132;50.864;5.176;2023-02-27T09:28:54;4.60;99.90
19941;DHT22;10132;50.864;5.176;2023-02-27T09:30:59;4.80;99.90
19941;DHT22;10132;50.864;5.176;2023-02-27T09:33:01;4.70;99.90
19941;DHT22;10132;50.864;5.176;2023-02-27T09:35:04;4.90;99.90
19941;DHT22;10132;50.864;5.176;2023-02-27T09:37:06;5.00;99.90
19941;DHT22;10132;50.864;5.176;2023-02-27T09:39:09;4.90;99.90
19941;DHT22;10132;50.864;5.176;2023-02-27T09:41:43;5.50;99.90
19941;DHT22;10132;50.864;5.176;2023-02-27T09:43:48;5.90;99.90
19941;DHT22;10132;50.864;5.176;2023-02-27T09:45:53;5.70;99.90
19941;DHT22;10132;50.864;5.176;2023-02-27T09:47:59;5.50;99.90
19941;DHT22;10132;50.864;5.176;2023-02-27T09:50:05;5.70;99.90
19941;DHT22;10132;50.864;5.176;2023-02-27T09:52:12;5.80;99.90
19941;DHT22;10132;50.864;5.176;2023-02-27T09:54:16;5.80;99.90
19941;DHT22;10132;50.864;5.176;2023-02-27T09:56:22;5.80;99.90
19941;DHT22;10132;50.864;5.176;2023-02-27T09:58:37;5.80;99.90
19941;DHT22;10132;50.864;5.176;2023-02-27T10:00:46;5.90;99.90
19941;DHT22;10132;50.864;5.176;2023-02-27T10:02:54;5.80;99.90
19941;DHT22;10132;50.864;5.176;2023-02-27T10:05:03;5.70;99.90
19941;DHT22;10132;50.864;5.176;2023-02-27T10:07:13;5.80;99.90
19941;DHT22;10132;50.864;5.176;2023-02-27T10:09:29;5.90;99.90
19941;DHT22;10132;50.864;5.176;2023-02-27T10:11:39;6.30;99.90
19941;DHT22;10132;50.864;5.176;2023-02-27T10:13:51;6.70;99.90
19941;DHT22;10132;50.864;5.176;2023-02-27T10:15:59;7.00;99.90
19941;DHT22;10132;50.864;5.176;2023-02-27T10:18:05;6.90;99.90
19941;DHT22;10132;50.864;5.176;2023-02-27T10:20:19;6.90;99.90
19941;DHT22;10132;50.864;5.176;2023-02-27T10:22:27;6.80;99.90
19941;DHT22;10132;50.864;5.176;2023-02-27T10:24:34;6.90;99.90
19941;DHT22;10132;50.864;5.176;2023-02-27T10:26:40;7.20;99.90
19941;DHT22;10132;50.864;5.176;2023-02-27T10:28:43;7.20;99.90
19941;DHT22;10132;50.864;5.176;2023-02-27T10:30:48;7.10;99.90
19941;DHT22;10132;50.864;5.176;2023-02-27T10:32:53;7.20;99.90
19941;DHT22;10132;50.864;5.176;2023-02-27T10:35:04;7.10;99.90
19941;DHT22;10132;50.864;5.176;2023-02-27T10:37:13;7.10;99.90
19941;DHT22;10132;50.864;5.176;2023-02-27T10:39:17;6.90;99.90
19941;DHT22;10132;50.864;5.176;2023-02-27T10:41:22;7.00;99.90
19941;DHT22;10132;50.864;5.176;2023-02-27T10:43:24;7.00;99.90
19941;DHT22;10132;50.864;5.176;2023-02-27T10:45:26;7.20;99.90
19941;DHT22;10132;50.864;5.176;2023-02-27T10:47:28;7.30;99.90
19941;DHT22;10132;50.864;5.176;2023-02-27T10:49:31;7.30;99.90
19941;DHT22;10132;50.864;5.176;2023-02-27T10:51:34;7.10;99.90
19941;DHT22;10132;50.864;5.176;2023-02-27T10:53:36;7.20;99.90
19941;DHT22;10132;50.864;5.176;2023-02-27T10:55:39;7.50;99.90
19941;DHT22;10132;50.864;5.176;2023-02-27T10:57:45;7.80;99.90
19941;DHT22;10132;50.864;5.176;2023-02-27T10:59:52;7.70;99.90
19941;DHT22;10132;50.864;5.176;2023-02-27T11:01:57;8.20;99.90
19941;DHT22;10132;50.864;5.176;2023-02-27T11:04:00;8.20;99.90
19941;DHT22;10132;50.864;5.176;2023-02-27T11:06:05;8.10;99.90
19941;DHT22;10132;50.864;5.176;2023-02-27T11:08:13;7.70;99.90
19941;DHT22;10132;50.864;5.176;2023-02-27T11:10:23;7.90;99.90
19941;DHT22;10132;50.864;5.176;2023-02-27T11:12:27;8.20;99.90
19941;DHT22;10132;50.864;5.176;2023-02-27T11:14:32;8.30;99.90
19941;DHT22;10132;50.864;5.176;2023-02-27T11:16:46;8.20;99.90
19941;DHT22;10132;50.864;5.176;2023-02-27T11:18:51;7.80;99.90
19941;DHT22;10132;50.864;5.176;2023-02-27T11:20:59;7.60;99.90
19941;DHT22;10132;50.864;5.176;2023-02-27T11:23:15;7.70;99.90
19941;DHT22;10132;50.864;5.176;2023-02-27T11:25:20;7.70;99.90
19941;DHT22;10132;50.864;5.176;2023-02-27T11:27:23;7.90;99.90
19941;DHT22;10132;50.864;5.176;2023-02-27T11:29:26;8.30;99.90
19941;DHT22;10132;50.864;5.176;2023-02-27T11:31:30;8.60;99.90
19941;DHT22;10132;50.864;5.176;2023-02-27T11:33:35;8.60;99.90
19941;DHT22;10132;50.864;5.176;2023-02-27T11:35:39;9.10;99.90
19941;DHT22;10132;50.864;5.176;2023-02-27T11:37:40;9.20;99.90
19941;DHT22;10132;50.864;5.176;2023-02-27T11:39:47;9.00;99.90
19941;DHT22;10132;50.864;5.176;2023-02-27T11:41:50;8.70;99.90
19941;DHT22;10132;50.864;5.176;2023-02-27T11:43:52;8.60;99.90
19941;DHT22;10132;50.864;5.176;2023-02-27T11:45:57;8.20;99.90
19941;DHT22;10132;50.864;5.176;2023-02-27T11:48:08;7.90;99.90
19941;DHT22;10132;50.864;5.176;2023-02-27T11:52:50;8.20;99.90
19941;DHT22;10132;50.864;5.176;2023-02-27T11:54:55;8.20;99.90
19941;DHT22;10132;50.864;5.176;2023-02-27T11:57:00;8.20;99.90
19941;DHT22;10132;50.864;5.176;2023-02-27T11:59:11;8.40;99.90
19941;DHT22;10132;50.864;5.176;2023-02-27T12:01:19;8.10;99.90
19941;DHT22;10132;50.864;5.176;2023-02-27T12:03:29;8.20;99.90
19941;DHT22;10132;50.864;5.176;2023-02-27T12:05:38;8.40;99.90
19941;DHT22;10132;50.864;5.176;2023-02-27T12:07:47;8.60;99.90
19941;DHT22;10132;50.864;5.176;2023-02-27T12:09:56;8.50;99.90
19941;DHT22;10132;50.864;5.176;2023-02-27T12:12:00;8.30;99.90
19941;DHT22;10132;50.864;5.176;2023-02-27T12:14:09;8.50;99.90
19941;DHT22;10132;50.864;5.176;2023-02-27T12:16:17;8.80;99.90
19941;DHT22;10132;50.864;5.176;2023-02-27T12:18:29;9.20;99.90
19941;DHT22;10132;50.864;5.176;2023-02-27T12:20:35;9.30;99.90
19941;DHT22;10132;50.864;5.176;2023-02-27T12:22:41;9.30;99.90
19941;DHT22;10132;50.864;5.176;2023-02-27T12:24:48;9.30;99.90
19941;DHT22;10132;50.864;5.176;2023-02-27T12:27:00;9.40;99.90
19941;DHT22;10132;50.864;5.176;2023-02-27T12:29:14;9.40;99.90
19941;DHT22;10132;50.864;5.176;2023-02-27T12:31:37;9.20;99.90
19941;DHT22;10132;50.864;5.176;2023-02-27T12:33:47;9.10;99.90
19941;DHT22;10132;50.864;5.176;2023-02-27T12:35:54;8.70;99.90
19941;DHT22;10132;50.864;5.176;2023-02-27T12:37:58;8.90;99.90
19941;DHT22;10132;50.864;5.176;2023-02-27T12:40:02;9.30;99.90
19941;DHT22;10132;50.864;5.176;2023-02-27T12:42:28;9.80;99.90
19941;DHT22;10132;50.864;5.176;2023-02-27T12:44:46;10.00;99.90
19941;DHT22;10132;50.864;5.176;2023-02-27T12:46:57;9.80;99.90
19941;DHT22;10132;50.864;5.176;2023-02-27T12:49:28;9.80;99.90
19941;DHT22;10132;50.864;5.176;2023-02-27T12:51:42;9.80;99.90
19941;DHT22;10132;50.864;5.176;2023-02-27T12:54:01;9.60;99.90
19941;DHT22;10132;50.864;5.176;2023-02-27T12:56:10;9.60;99.90
19941;DHT22;10132;50.864;5.176;2023-02-27T12:58:21;9.70;99.90
19941;DHT22;10132;50.864;5.176;2023-02-27T13:00:27;9.70;99.90
19941;DHT22;10132;50.864;5.176;2023-02-27T13:05:06;9.90;99.90
19941;DHT22;10132;50.864;5.176;2023-02-27T13:07:20;10.30;99.90
19941;DHT22;10132;50.864;5.176;2023-02-27T13:09:32;10.80;99.90
19941;DHT22;10132;50.864;5.176;2023-02-27T13:11:50;10.80;99.90
19941;DHT22;10132;50.864;5.176;2023-02-27T13:13:58;10.50;99.90
19941;DHT22;10132;50.864;5.176;2023-02-27T13:16:04;10.10;99.90
19941;DHT22;10132;50.864;5.176;2023-02-27T13:18:27;9.80;99.90
19941;DHT22;10132;50.864;5.176;2023-02-27T13:20:39;10.10;99.90
19941;DHT22;10132;50.864;5.176;2023-02-27T13:22:50;10.40;99.90
19941;DHT22;10132;50.864;5.176;2023-02-27T13:24:57;10.10;99.90
19941;DHT22;10132;50.864;5.176;2023-02-27T13:27:03;9.40;99.90
19941;DHT22;10132;50.864;5.176;2023-02-27T13:29:11;8.90;99.90
19941;DHT22;10132;50.864;5.176;2023-02-27T13:31:21;8.70;99.90
19941;DHT22;10132;50.864;5.176;2023-02-27T13:33:28;8.60;99.90
19941;DHT22;10132;50.864;5.176;2023-02-27T13:35:46;8.30;99.90
19941;DHT22;10132;50.864;5.176;2023-02-27T13:37:51;7.80;99.90
19941;DHT22;10132;50.864;5.176;2023-02-27T13:39:54;7.90;99.90